Wind Gusting 15 knots
09
September 25, 2018 10:39 AM EDT
Weather Information
Wind Direction
  190 °
Wind Speed
  09 kt (10 mph)
Wind Gust
  15 kt (17 mph)
Altimeter
30.07 in
Visibility
10 SM
Temperature
22° C
72° F
Dewpoint
20° C
68° F
Humidity
88%
Sky Condition
Overcast @ 1,100 ft
MVFR

METAR KIMS 251439Z AUTO 19009G15KT 10SM OVC011 22/20 A3007 RMK AO1

FAA Disclaimer: The data displayed is for advisory purposes only and is not to be used for flight planning or operations.